Time;durP1;ratioP1;P1;durP2;ratioP2;P2;SDS_P1;SDS_P2;PMS_P1;PMS_P2;Temp;Humidity;BMP_temperature;BMP_pressure;BME280_temperature;BME280_humidity;BME280_pressure;Samples;Min_cycle;Max_cycle;Signal;HPM_P1;HPM_P2
2023/01/11 00:00:42;;;;;;;6.07;2.85;;;;;;;9.24;100.00;100667.16;5015705;28;20030;-66
2023/01/11 00:03:08;;;;;;;7.13;3.10;;;;;;;9.26;100.00;100668.97;5015679;28;20029;-67
2023/01/11 00:05:41;;;;;;;4.47;2.67;;;;;;;9.28;100.00;100650.53;5015862;28;20026;-67
2023/01/11 00:08:07;;;;;;;6.60;2.95;;;;;;;9.36;100.00;100651.50;5015745;28;20026;-68
2023/01/11 00:10:33;;;;;;;6.28;2.90;;;;;;;9.38;100.00;100647.16;5015655;28;20022;-67
2023/01/11 00:13:00;;;;;;;5.97;2.95;;;;;;;9.44;100.00;100654.25;5015469;28;20037;-67
2023/01/11 00:15:25;;;;;;;5.43;2.83;;;;;;;9.45;100.00;100643.69;5015646;28;20387;-66
2023/01/11 00:17:50;;;;;;;6.47;2.85;;;;;;;9.48;100.00;100646.38;5015450;28;20019;-67
2023/01/11 00:20:16;;;;;;;6.10;2.80;;;;;;;9.51;100.00;100641.16;5015292;28;20034;-67
2023/01/11 00:22:42;;;;;;;5.70;2.72;;;;;;;9.58;100.00;100630.66;5015260;28;20037;-67
2023/01/11 00:25:08;;;;;;;4.95;2.50;;;;;;;9.60;100.00;100635.09;5015172;28;20034;-67
2023/01/11 00:27:33;;;;;;;5.30;2.40;;;;;;;9.65;100.00;100636.03;5015421;28;20018;-66
2023/01/11 00:29:58;;;;;;;4.88;2.50;;;;;;;9.65;100.00;100622.84;5015157;28;20034;-67
2023/01/11 00:32:26;;;;;;;6.53;2.50;;;;;;;9.70;100.00;100629.03;5015002;28;20042;-67
2023/01/11 00:34:51;;;;;;;5.45;2.60;;;;;;;9.72;100.00;100631.69;5014979;28;20038;-67
2023/01/11 00:37:17;;;;;;;3.20;2.10;;;;;;;9.73;100.00;100615.91;5015003;28;20030;-66
2023/01/11 00:39:42;;;;;;;4.45;2.25;;;;;;;9.75;100.00;100632.59;5014887;28;20084;-67
2023/01/11 00:47:56;;;;;;;7.88;2.28;;;;;;;9.73;100.00;100622.94;5015141;28;20111;-66
2023/01/11 00:50:28;;;;;;;4.50;2.40;;;;;;;9.71;100.00;100616.72;5015087;28;20034;-68
2023/01/11 00:52:54;;;;;;;4.75;2.45;;;;;;;9.66;100.00;100624.59;5014953;28;20022;-66
2023/01/11 00:55:19;;;;;;;4.57;2.45;;;;;;;9.63;100.00;100616.66;5015054;28;20022;-68
2023/01/11 00:57:45;;;;;;;3.75;2.55;;;;;;;9.63;100.00;100615.75;5014599;28;20041;-68
2023/01/11 01:00:11;;;;;;;3.97;2.47;;;;;;;9.59;100.00;100616.59;5014562;28;20034;-67
2023/01/11 01:02:36;;;;;;;4.28;2.38;;;;;;;9.57;100.00;100616.59;5014452;28;20469;-67
2023/01/11 01:05:02;;;;;;;5.10;2.50;;;;;;;9.57;100.00;100611.31;5014444;28;20111;-67
2023/01/11 01:07:27;;;;;;;5.82;2.58;;;;;;;9.53;100.00;100605.13;5014524;28;20026;-68
2023/01/11 01:09:52;;;;;;;6.10;2.70;;;;;;;9.52;100.00;100611.25;5014367;28;20026;-68
2023/01/11 01:14:24;;;;;;;5.32;2.60;;;;;;;9.52;100.00;100606.00;5014886;28;20041;-68
2023/01/11 01:15:04;;;;;;;6.53;2.80;;;;;;;9.53;100.00;100612.16;5014306;28;20052;-68
2023/01/11 01:17:29;;;;;;;3.95;2.55;;;;;;;9.51;100.00;100611.25;5014536;28;20022;-68
2023/01/11 01:19:54;;;;;;;3.03;2.40;;;;;;;9.51;100.00;100612.16;5014287;28;20025;-68
2023/01/11 01:22:20;;;;;;;3.30;2.63;;;;;;;9.46;100.00;100595.38;5014266;28;20034;-69
2023/01/11 01:24:45;;;;;;;5.95;2.92;;;;;;;9.53;100.00;100613.03;5014091;28;20117;-68
2023/01/11 01:27:15;;;;;;;4.72;2.60;;;;;;;9.55;100.00;100613.06;5014117;28;20072;-69
2023/01/11 01:29:41;;;;;;;5.63;2.70;;;;;;;9.60;100.00;100602.56;5014250;28;20061;-70
2023/01/11 01:32:06;;;;;;;7.75;3.13;;;;;;;9.60;100.00;100621.91;5013805;28;20514;-68
2023/01/11 01:34:36;;;;;;;5.30;2.90;;;;;;;9.59;100.00;100620.13;5014049;28;20112;-69
2023/01/11 01:37:01;;;;;;;4.28;2.83;;;;;;;9.63;100.00;100616.66;5013742;28;20028;-68
2023/01/11 01:39:27;;;;;;;4.20;2.90;;;;;;;9.65;100.00;100620.19;5013989;28;20022;-70
2023/01/11 01:41:52;;;;;;;4.90;2.90;;;;;;;9.67;100.00;100618.44;5013906;28;20484;-69
2023/01/11 01:44:55;;;;;;;5.53;3.00;;;;;;;9.70;100.00;100620.25;5013830;28;20114;-69
2023/01/11 01:47:26;;;;;;;4.82;3.00;;;;;;;9.71;100.00;100608.81;5013948;28;20113;-69
2023/01/11 01:49:51;;;;;;;6.97;3.00;;;;;;;9.73;100.00;100610.63;5013690;28;20033;-69
2023/01/11 01:52:17;;;;;;;6.78;3.20;;;;;;;9.75;100.00;100614.13;5013950;28;20051;-69
2023/01/11 01:54:46;;;;;;;7.10;2.92;;;;;;;9.77;100.00;100607.13;5012748;28;20383;-69
2023/01/11 01:57:19;;;;;;;9.30;3.17;;;;;;;9.81;100.00;100602.78;5013841;28;20109;-69
2023/01/11 01:59:50;;;;;;;7.38;3.30;;;;;;;9.87;100.00;100612.50;4996165;28;20030;-69
2023/01/11 02:02:17;;;;;;;5.93;3.10;;;;;;;9.91;100.00;100614.31;5013504;28;20042;-69
2023/01/11 02:04:46;;;;;;;4.65;3.05;;;;;;;9.92;100.00;100603.75;5013594;28;20034;-68
2023/01/11 02:07:27;;;;;;;4.53;2.65;;;;;;;9.98;100.00;100606.47;5013282;28;20072;-70
2023/01/11 02:10:09;;;;;;;4.88;2.90;;;;;;;10.02;100.00;100607.34;5013519;28;20026;-69
2023/01/11 02:12:57;;;;;;;6.28;2.65;;;;;;;10.02;100.00;100603.00;5013802;28;20045;-69
2023/01/11 02:15:23;;;;;;;5.03;3.03;;;;;;;10.06;100.00;100613.56;5012757;28;20045;-69
2023/01/11 02:17:49;;;;;;;5.40;2.70;;;;;;;10.09;100.00;100600.38;5013538;28;20105;-68
2023/01/11 02:20:17;;;;;;;5.47;2.80;;;;;;;10.10;100.00;100603.03;5013349;28;20064;-69
2023/01/11 02:23:07;;;;;;;5.93;2.80;;;;;;;10.14;100.00;100604.81;5013545;28;20029;-69
2023/01/11 02:25:54;;;;;;;3.88;2.58;;;;;;;10.18;100.00;100603.97;5013279;28;20459;-69
2023/01/11 02:28:35;;;;;;;3.88;2.50;;;;;;;10.19;100.00;100615.44;5013281;28;20038;-68
2023/01/11 02:31:34;;;;;;;4.78;2.38;;;;;;;10.24;100.00;100605.81;5013268;28;20038;-68
2023/01/11 02:34:21;;;;;;;3.78;2.67;;;;;;;10.25;100.00;100603.22;5013079;28;20046;-68
2023/01/11 02:37:01;;;;;;;3.63;2.40;;;;;;;10.25;100.00;100589.13;5013034;28;20068;-68
2023/01/11 02:39:29;;;;;;;3.55;2.47;;;;;;;10.27;100.00;100592.66;5013343;28;20029;-69
2023/01/11 02:45:22;;;;;;;2.63;2.20;;;;;;;10.32;100.00;100585.66;5013541;28;20044;-68
2023/01/11 02:48:08;;;;;;;3.58;2.33;;;;;;;10.36;100.00;100575.97;5003929;28;20030;-68
2023/01/11 02:50:33;;;;;;;4.97;2.60;;;;;;;10.34;100.00;100578.63;5013274;28;20034;-68
2023/01/11 02:53:16;;;;;;;4.30;2.30;;;;;;;10.36;100.00;100586.53;5013001;28;20026;-68
2023/01/11 02:55:47;;;;;;;7.85;2.45;;;;;;;10.35;100.00;100583.03;5013248;28;20034;-68
2023/01/11 02:58:15;;;;;;;3.60;2.40;;;;;;;10.37;100.00;100585.69;5012953;28;20527;-68
2023/01/11 03:00:41;;;;;;;3.30;2.33;;;;;;;10.36;100.00;100578.63;5012928;28;20030;-69
2023/01/11 03:03:14;;;;;;;4.85;2.28;;;;;;;10.39;100.00;100584.81;5011655;28;20034;-68
2023/01/11 03:05:52;;;;;;;3.63;2.30;;;;;;;10.40;100.00;100585.69;5013069;28;20030;-68
2023/01/11 03:09:03;;;;;;;4.50;2.55;;;;;;;10.42;100.00;100587.50;5017011;28;20037;-69
2023/01/11 03:15:02;;;;;;;4.60;2.20;;;;;;;10.46;100.00;100569.91;4956463;29;20122;-69
2023/01/11 03:17:30;;;;;;;2.85;2.17;;;;;;;10.46;100.00;100565.50;5008742;28;20105;-68
2023/01/11 03:20:27;;;;;;;3.53;2.10;;;;;;;10.47;100.00;100574.31;5016466;28;20071;-68
2023/01/11 03:23:06;;;;;;;5.05;2.30;;;;;;;10.49;100.00;100568.19;5010671;28;20117;-68
2023/01/11 03:25:56;;;;;;;3.15;2.30;;;;;;;10.54;100.00;100573.50;5016517;28;20439;-67
2023/01/11 03:28:32;;;;;;;4.95;2.20;;;;;;;10.53;100.00;100566.41;5016371;28;20025;-68
2023/01/11 03:31:30;;;;;;;3.45;2.00;;;;;;;10.57;100.00;100569.97;5016505;28;20030;-68
2023/01/11 03:34:22;;;;;;;3.10;2.05;;;;;;;10.57;100.00;100568.19;5001991;28;20384;-68
2023/01/11 03:36:56;;;;;;;2.60;2.00;;;;;;;10.59;100.00;100573.53;5016329;28;20030;-68
2023/01/11 03:39:29;;;;;;;4.60;2.10;;;;;;;10.59;100.00;100578.81;5016440;28;20039;-68
2023/01/11 03:41:58;;;;;;;3.50;2.10;;;;;;;10.59;100.00;100574.41;5016213;28;20057;-69
2023/01/11 03:44:27;;;;;;;2.80;2.03;;;;;;;10.61;100.00;100571.75;5016019;28;20025;-69
2023/01/11 03:47:01;;;;;;;4.28;1.80;;;;;;;10.60;100.00;100572.63;5015965;28;20021;-68
2023/01/11 03:49:40;;;;;;;2.67;1.80;;;;;;;10.63;100.00;100575.31;5016285;28;20022;-68
2023/01/11 03:52:11;;;;;;;2.30;1.80;;;;;;;10.63;100.00;100577.94;5016017;28;20452;-69
2023/01/11 03:54:38;;;;;;;1.92;1.75;;;;;;;10.61;100.00;100574.41;5015943;28;20048;-68
2023/01/11 03:57:39;;;;;;;3.95;2.05;;;;;;;10.62;100.00;100574.44;5015794;28;20113;-68
2023/01/11 04:00:06;;;;;;;5.03;2.10;;;;;;;10.60;100.00;100575.28;5015761;28;20480;-67
2023/01/11 04:02:40;;;;;;;1.80;1.70;;;;;;;10.61;100.00;100580.56;5015869;28;20113;-68
2023/01/11 04:05:07;;;;;;;2.03;1.83;;;;;;;10.62;100.00;100581.44;5015625;28;20431;-68
2023/01/11 04:07:32;;;;;;;3.17;1.70;;;;;;;10.62;100.00;100582.34;5015558;28;20022;-69
2023/01/11 04:09:57;;;;;;;3.83;1.80;;;;;;;10.63;100.00;100578.81;5015540;28;20080;-68
2023/01/11 04:12:24;;;;;;;2.63;2.00;;;;;;;10.65;100.00;100581.47;5015500;28;20392;-67
2023/01/11 04:14:49;;;;;;;1.80;1.70;;;;;;;10.67;100.00;100577.97;4997837;28;20050;-68
2023/01/11 04:17:15;;;;;;;2.35;1.80;;;;;;;10.69;100.00;100585.91;5014777;28;20049;-68
2023/01/11 04:19:40;;;;;;;2.15;1.90;;;;;;;10.70;100.00;100587.66;5014944;28;20052;-68
2023/01/11 04:22:06;;;;;;;2.65;2.05;;;;;;;10.70;100.00;100592.94;5015356;28;20033;-68
2023/01/11 04:24:31;;;;;;;3.15;2.20;;;;;;;10.73;100.00;100593.84;5015328;28;20424;-68
2023/01/11 04:26:56;;;;;;;5.00;2.20;;;;;;;10.75;100.00;100592.13;5015808;28;20029;-68
2023/01/11 04:29:22;;;;;;;2.20;2.00;;;;;;;10.79;100.00;100585.06;5015013;28;20030;-68
2023/01/11 04:31:47;;;;;;;3.38;2.03;;;;;;;10.83;100.00;100591.25;5015193;28;20507;-68
2023/01/11 04:34:13;;;;;;;2.80;2.40;;;;;;;10.84;100.00;100593.94;4997461;28;20092;-67
2023/01/11 04:36:38;;;;;;;3.08;2.35;;;;;;;10.87;100.00;100609.78;5014761;28;20381;-68
2023/01/11 04:39:05;;;;;;;3.40;2.50;;;;;;;10.89;100.00;100609.81;5015113;28;20054;-67
2023/01/11 04:44:14;;;;;;;3.55;2.50;;;;;;;10.93;100.00;100619.53;5015245;28;20049;-67
2023/01/11 04:46:40;;;;;;;4.40;2.42;;;;;;;10.94;100.00;100613.34;4997287;28;20026;-67
2023/01/11 04:49:05;;;;;;;3.03;2.55;;;;;;;10.95;100.00;100617.75;5014683;28;20033;-67
2023/01/11 04:51:30;;;;;;;4.47;2.35;;;;;;;10.97;100.00;100618.69;5014928;28;20038;-68
2023/01/11 04:53:56;;;;;;;4.43;2.58;;;;;;;10.97;100.00;100610.75;5014885;28;20041;-68
2023/01/11 04:56:21;;;;;;;6.47;2.50;;;;;;;10.96;100.00;100617.78;5014993;28;20123;-68
2023/01/11 04:58:47;;;;;;;4.78;2.00;;;;;;;10.98;100.00;100621.31;5014651;28;20072;-68
2023/01/11 05:01:17;;;;;;;3.17;2.00;;;;;;;10.99;100.00;100622.19;5014947;28;20482;-68
2023/01/11 05:03:44;;;;;;;3.10;2.20;;;;;;;11.03;100.00;100621.34;5014658;28;20057;-68
2023/01/11 05:06:10;;;;;;;4.03;2.10;;;;;;;11.02;100.00;100630.16;5014634;28;20037;-68
2023/01/11 05:08:36;;;;;;;2.30;2.10;;;;;;;11.02;100.00;100616.94;4996757;28;20022;-68
2023/01/11 05:11:04;;;;;;;4.25;2.15;;;;;;;11.03;100.00;100613.41;5014460;28;20029;-68
2023/01/11 05:13:42;;;;;;;3.15;2.10;;;;;;;11.02;100.00;100623.09;5014673;28;20025;-68
2023/01/11 05:16:11;;;;;;;3.08;2.03;;;;;;;11.02;100.00;100620.47;5014368;28;20029;-68
2023/01/11 05:18:46;;;;;;;3.80;2.33;;;;;;;11.03;100.00;100622.22;4996661;28;20088;-68
2023/01/11 05:21:13;;;;;;;3.75;2.10;;;;;;;11.04;100.00;100631.03;5014194;28;20113;-68
2023/01/11 05:23:39;;;;;;;3.22;2.58;;;;;;;11.04;100.00;100626.63;5014175;28;20030;-68
2023/01/11 05:26:07;;;;;;;4.72;2.70;;;;;;;11.05;100.00;100640.75;5013990;28;20030;-70
2023/01/11 05:28:34;;;;;;;3.25;2.72;;;;;;;11.07;100.00;100638.09;5014034;28;20537;-69
2023/01/11 05:30:59;;;;;;;4.82;2.75;;;;;;;11.07;100.00;100638.09;5013979;28;20032;-68
2023/01/11 05:33:25;;;;;;;5.10;2.90;;;;;;;11.10;100.00;100644.31;5013734;28;20046;-68
2023/01/11 05:35:56;;;;;;;4.80;3.30;;;;;;;11.09;100.00;100649.56;5013810;28;20030;-68
2023/01/11 05:38:22;;;;;;;5.82;3.47;;;;;;;11.08;100.00;100643.38;5014237;28;20061;-68
2023/01/11 05:41:03;;;;;;;5.53;3.78;;;;;;;11.08;100.00;100646.03;5013873;28;20487;-68
2023/01/11 05:43:29;;;;;;;4.45;3.78;;;;;;;11.08;100.00;100637.22;5013897;28;20044;-68
2023/01/11 05:45:56;;;;;;;6.10;4.47;;;;;;;11.07;100.00;100638.09;5013740;28;20033;-69
2023/01/11 05:48:22;;;;;;;5.97;3.95;;;;;;;11.06;100.00;100641.63;5013689;28;20029;-68
2023/01/11 05:50:51;;;;;;;5.85;4.40;;;;;;;11.04;100.00;100644.25;5013586;28;20046;-68
2023/01/11 05:53:18;;;;;;;7.95;4.72;;;;;;;11.03;100.00;100650.41;5013622;28;20076;-68
2023/01/11 05:55:54;;;;;;;5.82;4.50;;;;;;;11.02;100.00;100646.91;5013710;28;20117;-68
2023/01/11 05:58:19;;;;;;;9.98;4.80;;;;;;;11.02;100.00;100649.53;5013614;28;20037;-68
2023/01/11 06:00:49;;;;;;;6.20;4.47;;;;;;;11.03;100.00;100655.72;5013562;28;20030;-68
2023/01/11 06:03:14;;;;;;;7.63;4.50;;;;;;;11.01;100.00;100652.19;4995806;28;20030;-67
2023/01/11 06:05:39;;;;;;;8.63;4.65;;;;;;;11.00;100.00;100645.09;5013657;28;20117;-68
2023/01/11 06:08:05;;;;;;;8.30;4.20;;;;;;;10.97;100.00;100655.69;5013619;28;20022;-68
2023/01/11 06:10:30;;;;;;;12.40;3.78;;;;;;;10.91;100.00;100676.78;5013296;28;20471;-69
2023/01/11 06:13:25;;;;;;;12.02;3.15;;;;;;;10.88;100.00;100679.44;5013362;28;20053;-68
2023/01/11 06:15:41;;;;;;;11.32;3.35;;;;;;;10.84;100.00;100670.59;5013320;28;20419;-68
2023/01/11 06:18:06;;;;;;;11.65;3.60;;;;;;;10.83;100.00;100675.84;4995846;28;20018;-68
2023/01/11 06:20:32;;;;;;;11.85;3.60;;;;;;;10.81;100.00;100685.53;4995760;28;20030;-69
2023/01/11 06:22:57;;;;;;;12.63;3.65;;;;;;;10.78;100.00;100689.91;5013321;28;20058;-68
2023/01/11 06:25:22;;;;;;;18.05;3.70;;;;;;;10.73;100.00;100689.00;5013253;28;20444;-68
2023/01/11 06:27:48;;;;;;;11.07;3.33;;;;;;;10.72;100.00;100692.50;4995728;28;20030;-68
2023/01/11 06:30:13;;;;;;;13.98;3.17;;;;;;;10.70;100.00;100704.81;4994894;28;20077;-68
2023/01/11 06:32:39;;;;;;;10.18;3.00;;;;;;;10.68;100.00;100701.28;4993251;28;20054;-68
2023/01/11 06:35:04;;;;;;;20.15;4.30;;;;;;;10.65;100.00;100711.81;4993472;28;20379;-68
2023/01/11 06:37:30;;;;;;;12.80;3.15;;;;;;;10.63;100.00;100713.59;4993179;28;20082;-67
2023/01/11 06:39:55;;;;;;;14.57;3.75;;;;;;;10.55;100.00;100710.00;4993530;28;20519;-68
2023/01/11 06:42:21;;;;;;;16.35;3.13;;;;;;;10.57;100.00;100723.22;4979314;28;20030;-69
2023/01/11 06:44:46;;;;;;;11.98;2.80;;;;;;;10.53;100.00;100738.13;4997532;28;20479;-68
2023/01/11 06:47:11;;;;;;;14.50;3.53;;;;;;;10.49;100.00;100736.34;4997526;28;20027;-68
2023/01/11 06:49:37;;;;;;;18.33;2.90;;;;;;;10.48;100.00;100746.03;4997422;28;20033;-68
2023/01/11 06:52:02;;;;;;;12.38;3.50;;;;;;;10.44;100.00;100723.09;4997626;28;20089;-67
2023/01/11 06:54:27;;;;;;;19.33;3.78;;;;;;;10.43;100.00;100738.94;4997416;28;20054;-68
2023/01/11 06:56:53;;;;;;;17.25;2.92;;;;;;;10.39;100.00;100760.91;4997353;28;20022;-68
2023/01/11 06:59:18;;;;;;;18.42;2.90;;;;;;;10.40;100.00;100760.91;4997275;28;20094;-67
2023/01/11 07:01:44;;;;;;;16.00;3.50;;;;;;;10.37;100.00;100766.19;4997195;28;20105;-67
2023/01/11 07:04:09;;;;;;;14.70;3.08;;;;;;;10.36;100.00;100755.59;4997310;28;20054;-67
2023/01/11 07:06:35;;;;;;;10.98;2.78;;;;;;;10.33;100.00;100758.22;4997279;28;20361;-68
2023/01/11 07:09:00;;;;;;;17.48;3.72;;;;;;;10.31;100.00;100763.47;4979519;28;20061;-69
2023/01/11 07:11:26;;;;;;;13.18;3.10;;;;;;;10.27;100.00;100753.75;4997109;28;20061;-67
2023/01/11 07:13:51;;;;;;;21.42;3.67;;;;;;;10.28;100.00;100763.47;4997002;28;20037;-68
2023/01/11 07:16:16;;;;;;;14.75;3.50;;;;;;;10.26;100.00;100779.25;4997107;28;20105;-67
2023/01/11 07:18:42;;;;;;;26.02;3.83;;;;;;;10.24;100.00;100781.03;4979447;28;20027;-67
2023/01/11 07:21:07;;;;;;;18.83;3.67;;;;;;;10.24;100.00;100775.75;4997299;28;20018;-68
2023/01/11 07:23:33;;;;;;;18.10;3.88;;;;;;;10.23;100.00;100791.50;4996940;28;20030;-67
2023/01/11 07:25:58;;;;;;;26.08;4.00;;;;;;;10.21;100.00;100807.34;4996738;28;20035;-68
2023/01/11 07:28:27;;;;;;;23.02;3.85;;;;;;;10.19;100.00;100798.53;4996773;28;20117;-67
2023/01/11 07:30:52;;;;;;;20.05;3.45;;;;;;;10.18;100.00;100804.66;4996717;28;20027;-67
2023/01/11 07:33:18;;;;;;;19.95;3.42;;;;;;;10.17;100.00;100812.56;4996467;28;20404;-68
2023/01/11 07:35:43;;;;;;;20.45;4.15;;;;;;;10.14;100.00;100800.22;4996729;28;20036;-68
2023/01/11 07:38:10;;;;;;;15.35;3.50;;;;;;;10.11;100.00;100801.97;4996452;28;20023;-68
2023/01/11 07:40:36;;;;;;;14.90;3.42;;;;;;;10.07;100.00;100808.06;4996764;28;20058;-67
2023/01/11 07:43:10;;;;;;;18.95;3.80;;;;;;;10.05;100.00;100818.59;4996463;28;20027;-68
2023/01/11 07:45:38;;;;;;;19.67;3.50;;;;;;;10.01;100.00;100828.22;4996382;28;20404;-67
2023/01/11 07:48:05;;;;;;;18.20;3.33;;;;;;;9.98;100.00;100825.56;4978780;28;20432;-67
2023/01/11 07:50:31;;;;;;;16.10;3.25;;;;;;;9.97;100.00;100829.03;4996203;28;20062;-68
2023/01/11 07:52:57;;;;;;;21.35;3.88;;;;;;;9.98;100.00;100840.50;4996123;28;20042;-67
2023/01/11 07:55:22;;;;;;;22.10;3.70;;;;;;;9.95;100.00;100853.66;4978786;28;20034;-66
2023/01/11 07:57:48;;;;;;;20.63;3.60;;;;;;;9.94;100.00;100852.78;4996414;28;20038;-67
2023/01/11 08:00:14;;;;;;;23.08;4.55;;;;;;;9.90;100.00;100864.16;4978915;28;20045;-68
2023/01/11 08:02:39;;;;;;;19.58;3.60;;;;;;;9.87;100.00;100864.13;4996456;28;20030;-68
2023/01/11 08:05:05;;;;;;;24.92;3.70;;;;;;;9.83;100.00;100867.56;4996277;28;20023;-67
2023/01/11 08:07:31;;;;;;;12.00;2.97;;;;;;;9.81;100.00;100863.13;4978511;28;20054;-68
2023/01/11 08:09:56;;;;;;;21.38;3.70;;;;;;;9.77;100.00;100870.13;4996097;28;20070;-67
2023/01/11 08:15:08;;;;;;;14.80;3.15;;;;;;;9.70;100.00;100870.91;4996207;28;20451;-67
2023/01/11 08:17:34;;;;;;;16.70;3.05;;;;;;;9.69;100.00;100872.66;4996090;28;20046;-67
2023/01/11 08:20:00;;;;;;;16.33;3.47;;;;;;;9.66;100.00;100891.06;4995819;28;20030;-67
2023/01/11 08:22:25;;;;;;;17.00;3.67;;;;;;;9.65;100.00;100891.94;4996017;28;20042;-66
2023/01/11 08:24:50;;;;;;;20.88;3.58;;;;;;;9.63;100.00;100898.94;4995785;28;20548;-67
2023/01/11 08:27:16;;;;;;;13.77;3.13;;;;;;;9.59;100.00;100904.13;4995758;28;20109;-68
2023/01/11 08:29:43;;;;;;;15.57;3.08;;;;;;;9.57;100.00;100917.31;4995630;28;20053;-68
2023/01/11 08:32:09;;;;;;;18.02;3.95;;;;;;;9.51;100.00;100926.03;4995704;28;20035;-67
2023/01/11 08:34:34;;;;;;;21.27;3.28;;;;;;;9.52;100.00;100926.91;4995291;28;20066;-67
2023/01/11 08:37:00;;;;;;;21.80;3.72;;;;;;;9.49;100.00;100940.03;4995571;28;20031;-67
2023/01/11 08:39:29;;;;;;;18.98;3.35;;;;;;;9.46;100.00;100939.97;4995719;28;20134;-67
2023/01/11 08:41:56;;;;;;;19.85;3.45;;;;;;;9.43;100.00;100954.03;4995258;28;20030;-67
2023/01/11 08:44:22;;;;;;;18.80;3.35;;;;;;;9.43;100.00;100947.88;4995626;28;20041;-67
2023/01/11 08:46:47;;;;;;;18.40;3.03;;;;;;;9.39;100.00;100952.19;4995581;28;20034;-67
2023/01/11 08:49:13;;;;;;;17.23;3.45;;;;;;;9.37;100.00;100956.53;4995345;28;20034;-67
2023/01/11 08:51:39;;;;;;;22.70;3.47;;;;;;;9.37;100.00;100966.19;4995265;28;20102;-68
2023/01/11 08:54:08;;;;;;;19.65;3.70;;;;;;;9.34;100.00;100969.69;4995461;28;20121;-67
2023/01/11 08:56:34;;;;;;;16.65;3.38;;;;;;;9.31;100.00;100960.84;4995000;28;20113;-68
2023/01/11 08:59:01;;;;;;;24.67;3.80;;;;;;;9.32;100.00;100975.78;4995340;28;20018;-68
2023/01/11 09:01:26;;;;;;;16.45;3.20;;;;;;;9.25;100.00;100974.81;4995037;28;20038;-67
2023/01/11 09:03:51;;;;;;;13.85;2.75;;;;;;;9.30;100.00;100988.06;4994366;28;20092;-67
2023/01/11 09:06:17;;;;;;;17.00;3.53;;;;;;;9.28;100.00;100983.63;4994754;28;20061;-67
2023/01/11 09:08:43;;;;;;;21.13;3.28;;;;;;;9.26;100.00;100989.75;4994888;28;20190;-67
2023/01/11 09:11:52;;;;;;;20.33;3.30;;;;;;;9.24;100.00;100984.44;4994830;28;20476;-66
2023/01/11 09:13:54;;;;;;;22.05;3.30;;;;;;;9.23;100.00;100987.06;4994669;28;20046;-67
2023/01/11 09:16:19;;;;;;;14.50;2.78;;;;;;;9.21;100.00;100986.16;4995028;28;20109;-67
2023/01/11 09:18:44;;;;;;;21.83;3.22;;;;;;;9.20;100.00;100977.31;4994783;28;20027;-68
2023/01/11 09:21:10;;;;;;;18.63;3.47;;;;;;;9.17;100.00;100985.22;4994662;28;20069;-67
2023/01/11 09:23:36;;;;;;;15.77;3.67;;;;;;;9.19;100.00;100988.75;4994601;28;20392;-67
2023/01/11 09:26:02;;;;;;;15.98;3.38;;;;;;;9.16;100.00;100993.94;4994510;28;20041;-66
2023/01/11 09:28:27;;;;;;;19.58;3.55;;;;;;;9.14;100.00;100993.03;4994381;28;20491;-67
2023/01/11 09:30:52;;;;;;;12.02;2.70;;;;;;;9.11;100.00;100997.38;4994620;28;20035;-67
2023/01/11 09:33:18;;;;;;;20.95;3.38;;;;;;;9.10;100.00;100987.69;4994207;28;20057;-67
2023/01/11 09:35:45;;;;;;;21.85;3.35;;;;;;;9.07;100.00;101009.59;4994657;28;20062;-67
2023/01/11 09:38:10;;;;;;;23.08;3.78;;;;;;;9.09;100.00;101010.53;4994294;28;20113;-68
2023/01/11 09:41:02;;;;;;;16.67;3.00;;;;;;;9.13;100.00;101007.09;4994157;28;20113;-68
2023/01/11 09:43:29;;;;;;;17.65;3.10;;;;;;;9.19;100.00;101016.84;4994559;28;20113;-66
2023/01/11 09:46:03;;;;;;;16.80;2.90;;;;;;;9.37;100.00;101021.59;4994446;28;20026;-68
2023/01/11 09:48:47;;;;;;;16.90;3.53;;;;;;;9.70;100.00;101032.75;4994222;28;20477;-67
2023/01/11 09:51:15;;;;;;;17.23;3.47;;;;;;;10.04;98.51;101022.75;4994209;28;20067;-67
2023/01/11 09:53:48;;;;;;;13.10;3.13;;;;;;;10.22;98.39;101030.94;4993944;28;20018;-67
2023/01/11 09:56:22;;;;;;;17.52;3.63;;;;;;;10.34;97.42;101037.31;4994084;28;20038;-67
2023/01/11 09:59:15;;;;;;;16.45;3.22;;;;;;;10.36;95.77;101030.28;4994286;28;20030;-68
2023/01/11 10:02:10;;;;;;;18.88;3.17;;;;;;;10.23;96.37;101032.72;4994040;28;20106;-67
2023/01/11 10:05:30;;;;;;;18.67;3.58;;;;;;;10.31;96.92;101029.34;4988953;28;20045;-67
2023/01/11 10:08:05;;;;;;;13.40;3.05;;;;;;;10.47;96.22;101026.94;4993843;28;20030;-67
2023/01/11 10:10:50;;;;;;;18.73;3.55;;;;;;;10.60;95.33;101027.09;4976332;28;20031;-67
2023/01/11 10:13:19;;;;;;;13.40;3.30;;;;;;;10.80;95.79;101030.91;4993784;28;20034;-67
2023/01/11 10:16:07;;;;;;;17.65;3.63;;;;;;;10.96;94.16;101031.97;4993240;28;20113;-67
2023/01/11 10:18:52;;;;;;;16.50;3.60;;;;;;;11.08;93.04;101026.81;4993788;28;20034;-67
2023/01/11 10:21:31;;;;;;;18.95;3.08;;;;;;;11.18;92.41;101034.00;4994095;28;20432;-67
2023/01/11 10:24:13;;;;;;;17.35;3.83;;;;;;;11.35;92.07;101041.22;4993645;28;20476;-67
2023/01/11 10:26:40;;;;;;;15.07;3.00;;;;;;;11.45;90.94;101048.41;4993665;28;20492;-67
2023/01/11 10:40:33;;;;;;;17.75;2.95;;;;;;;11.96;87.63;101037.44;4960684;28;20058;-66
2023/01/11 10:43:20;;;;;;;19.20;3.35;;;;;;;12.07;87.30;101037.50;4993735;28;20077;-67
2023/01/11 10:45:49;;;;;;;17.90;3.15;;;;;;;12.16;86.64;101044.66;4993833;28;20045;-67
2023/01/11 10:48:33;;;;;;;20.63;3.28;;;;;;;12.25;84.87;101050.03;4993356;28;20023;-68
2023/01/11 10:51:26;;;;;;;15.30;3.60;;;;;;;12.27;85.59;101045.63;4993302;28;20158;-67
2023/01/11 10:54:15;;;;;;;13.93;3.15;;;;;;;12.25;85.14;101045.63;4993442;28;20117;-67
2023/01/11 10:56:56;;;;;;;11.73;3.28;;;;;;;12.33;84.82;101045.66;4993594;28;20038;-67
2023/01/11 10:59:38;;;;;;;20.77;3.78;;;;;;;12.36;83.62;101045.69;4993359;28;20022;-66
2023/01/11 11:02:15;;;;;;;17.88;3.70;;;;;;;12.47;82.87;101040.47;4985911;28;20026;-67
2023/01/11 11:04:49;;;;;;;13.05;3.35;;;;;;;12.62;82.64;101048.47;4993361;28;20073;-67
2023/01/11 11:07:36;;;;;;;17.40;3.55;;;;;;;12.69;80.52;101049.41;4993090;28;20022;-67
2023/01/11 11:10:33;;;;;;;15.13;3.30;;;;;;;12.70;81.20;101037.94;4993122;28;20093;-67
2023/01/11 11:13:14;;;;;;;13.45;2.95;;;;;;;12.74;78.95;101040.59;4993211;28;20101;-66
2023/01/11 11:16:02;;;;;;;15.48;3.60;;;;;;;12.83;81.32;101044.19;4993508;28;20026;-67
2023/01/11 11:18:27;;;;;;;18.88;3.60;;;;;;;12.96;80.24;101046.00;4993454;28;20156;-68
2023/01/11 11:20:57;;;;;;;14.98;3.83;;;;;;;13.03;77.92;101058.41;4993445;28;20120;-67
2023/01/11 11:23:23;;;;;;;15.18;3.30;;;;;;;13.01;76.74;101052.22;4993209;28;20100;-68
2023/01/11 11:25:55;;;;;;;19.98;3.90;;;;;;;13.02;77.94;101038.97;4993132;28;20037;-67
2023/01/11 11:28:27;;;;;;;20.23;3.75;;;;;;;13.09;76.75;101044.28;4978662;28;20074;-68
2023/01/11 11:30:55;;;;;;;18.25;3.17;;;;;;;13.18;75.69;101044.31;4996518;28;20029;-67
2023/01/11 11:33:22;;;;;;;18.27;3.35;;;;;;;13.24;76.08;101042.59;4996812;28;20047;-67
2023/01/11 11:35:55;;;;;;;15.63;3.25;;;;;;;13.27;75.04;101047.94;4979359;28;20045;-67
2023/01/11 11:38:28;;;;;;;18.58;3.30;;;;;;;13.33;74.54;101056.78;4996427;28;20024;-68
2023/01/11 11:41:03;;;;;;;17.70;3.28;;;;;;;13.32;74.77;101053.25;4980392;28;20034;-67
2023/01/11 11:43:30;;;;;;;20.23;3.65;;;;;;;13.32;73.90;101055.00;4996595;28;20025;-67
2023/01/11 11:46:15;;;;;;;14.23;3.28;;;;;;;13.32;73.67;101062.94;4996858;28;20085;-67
2023/01/11 11:48:42;;;;;;;15.23;3.40;;;;;;;13.48;73.93;101064.78;4996487;28;20088;-68
2023/01/11 11:51:21;;;;;;;16.50;3.70;;;;;;;13.58;73.84;101063.94;4996427;28;20468;-67
2023/01/11 11:53:52;;;;;;;15.38;3.92;;;;;;;13.57;71.47;101059.47;4996428;28;20030;-68
2023/01/11 11:56:25;;;;;;;18.75;3.70;;;;;;;13.58;70.70;101065.69;4996303;28;20037;-67
2023/01/11 11:58:52;;;;;;;17.42;3.50;;;;;;;13.68;71.06;101070.13;4996645;28;20465;-68
2023/01/11 12:01:38;;;;;;;17.90;3.65;;;;;;;13.86;73.79;101066.59;4978930;28;20375;-67